PWSweather.com
Personal Weather Stations
Station Observations
PENICUIKWS
PenicuikGB

PenicuikGB

Lat: 55.830932, Lon: -3.224533000000065

Elevation: 166

Station Type: Fine Offset

http://weather.penicuik.org

Latest ConditionsUpdated 7:45:00 AM GMT Thursday, Jul 18, 2019
Currently Today's Max Today's Min Today's Average
Temperature 61.9°F16.6°C 64.0°F17.8°C 51.1°F10.6°C 55.7°F13.2°C
Dew Point 53.1°F11.7°C 56.0°F13.3°C 49.7°F9.8°C 52.6°F11.4°C
Winds 3.1 mph S5.0 kmh S 3.6 mph -5.8 kmh - - 2.0 mph 3.2 kmh
Wind Gusts 4.5 mph7.2 kmh 6.0 mph9.7 kmh - -
Humidity 73% 98% 70% 90%
Pressure 29.67 in1004.7 mb 29.67 in1004.7 mb 29.65 in1004.1 mb -
Precipitation - 0.01 in0.3 mm - -
Hour Temp Dew Point Humidity Winds Wind Gusts Pressure Precip Precip Rate Daily Precip Total
07:45 AM 61.9°F16.6°C 53.1°F11.7°C 73% 3.1 mph S5.0 kmh S 4.5 mph7.2 kmh 29.67 in1004.7 mb 0.00 in0.0 mm 0.00 in0.0 mm 0.01 in0.3 mm
07:30 AM 62.2°F16.8°C 53.9°F12.2°C 74% 2.7 mph ESE4.3 kmh ESE 4.5 mph7.2 kmh 29.66 in1004.4 mb 0.00 in0.0 mm 0.00 in0.0 mm 0.01 in0.3 mm
07:15 AM 64.0°F17.8°C 54.1°F12.3°C 70% 3.6 mph NW5.8 kmh NW 6.0 mph9.7 kmh 29.67 in1004.7 mb 0.00 in0.0 mm 0.00 in0.0 mm 0.01 in0.3 mm
07:00 AM 63.1°F17.3°C 55.5°F13.1°C 76% 3.5 mph NNW5.6 kmh NNW 5.4 mph8.7 kmh 29.65 in1004.1 mb 0.00 in0.0 mm 0.00 in0.0 mm 0.01 in0.3 mm
06:45 AM 58.3°F14.6°C 54.4°F12.4°C 87% 2.0 mph NW3.2 kmh NW 3.8 mph6.1 kmh 29.66 in1004.4 mb 0.00 in0.0 mm 0.00 in0.0 mm 0.01 in0.3 mm
06:30 AM 57.7°F14.3°C 54.5°F12.5°C 89% 2.5 mph S4.0 kmh S 3.1 mph5.0 kmh 29.67 in1004.7 mb 0.00 in0.0 mm 0.00 in0.0 mm 0.01 in0.3 mm
06:15 AM 57.0°F13.9°C 53.5°F11.9°C 88% 1.8 mph SW2.9 kmh SW 3.1 mph5.0 kmh 29.66 in1004.4 mb 0.00 in0.0 mm 0.00 in0.0 mm 0.01 in0.3 mm
06:00 AM 58.3°F14.6°C 52.5°F11.4°C 81% 2.9 mph SSE4.7 kmh SSE 3.8 mph6.1 kmh 29.66 in1004.4 mb 0.00 in0.0 mm 0.00 in0.0 mm 0.01 in0.3 mm
05:45 AM 62.8°F17.1°C 55.1°F12.8°C 76% 2.5 mph SW4.0 kmh SW 3.8 mph6.1 kmh 29.66 in1004.4 mb 0.00 in0.0 mm 0.00 in0.0 mm 0.01 in0.3 mm
05:30 AM 59.9°F15.5°C 56.0°F13.3°C 87% 2.5 mph S4.0 kmh S 3.8 mph6.1 kmh 29.66 in1004.4 mb 0.00 in0.0 mm 0.00 in0.0 mm 0.01 in0.3 mm
05:15 AM 56.5°F13.6°C 54.8°F12.7°C 94% 1.6 mph SW2.6 kmh SW 3.1 mph5.0 kmh 29.65 in1004.1 mb 0.00 in0.0 mm 0.00 in0.0 mm 0.01 in0.3 mm
05:00 AM 55.9°F13.3°C 54.8°F12.7°C 96% 1.5 mph SW2.4 kmh SW 2.2 mph3.5 kmh 29.66 in1004.4 mb 0.00 in0.0 mm 0.00 in0.0 mm 0.01 in0.3 mm
04:45 AM 53.2°F11.8°C 52.7°F11.5°C 98% 2.0 mph SE3.2 kmh SE 5.4 mph8.7 kmh 29.66 in1004.4 mb 0.00 in0.0 mm 0.00 in0.0 mm 0.01 in0.3 mm
04:30 AM 51.8°F11.0°C 51.0°F10.6°C 97% 1.7 mph N2.7 kmh N 5.4 mph8.7 kmh 29.65 in1004.1 mb 0.00 in0.0 mm 0.00 in0.0 mm 0.01 in0.3 mm
04:15 AM 51.4°F10.8°C 50.9°F10.5°C 98% 0.5 mph NW0.8 kmh NW 1.6 mph2.6 kmh 29.66 in1004.4 mb 0.00 in0.0 mm 0.00 in0.0 mm 0.01 in0.3 mm
04:00 AM 51.8°F11.0°C 50.7°F10.4°C 96% 0.9 mph NW1.4 kmh NW 2.2 mph3.5 kmh 29.66 in1004.4 mb 0.00 in0.0 mm 0.00 in0.0 mm 0.01 in0.3 mm
03:45 AM 51.3°F10.7°C 50.4°F10.2°C 97% 0.3 mph NW0.5 kmh NW 1.6 mph2.6 kmh 29.66 in1004.4 mb 0.00 in0.0 mm 0.00 in0.0 mm 0.01 in0.3 mm
03:30 AM 51.1°F10.6°C 50.0°F10.0°C 96% 0.3 mph WSW0.5 kmh WSW 1.6 mph2.6 kmh 29.66 in1004.4 mb 0.00 in0.0 mm 0.00 in0.0 mm 0.01 in0.3 mm
03:15 AM 51.1°F10.6°C 50.0°F10.0°C 96% 0.8 mph WSW1.3 kmh WSW 2.2 mph3.5 kmh 29.66 in1004.4 mb 0.00 in0.0 mm 0.00 in0.0 mm 0.01 in0.3 mm
03:00 AM 51.1°F10.6°C 49.7°F9.8°C 95% 0.8 mph NNW1.3 kmh NNW 1.6 mph2.6 kmh 29.66 in1004.4 mb 0.00 in0.0 mm 0.00 in0.0 mm 0.01 in0.3 mm
02:45 AM 51.4°F10.8°C 50.1°F10.1°C 95% 0.6 mph N1.0 kmh N 1.6 mph2.6 kmh 29.66 in1004.4 mb 0.00 in0.0 mm 0.00 in0.0 mm 0.01 in0.3 mm
02:30 AM 51.8°F11.0°C 49.8°F9.9°C 93% 1.5 mph NNE2.4 kmh NNE 3.1 mph5.0 kmh 29.66 in1004.4 mb 0.00 in0.0 mm 0.00 in0.0 mm 0.01 in0.3 mm
02:15 AM 52.2°F11.2°C 50.2°F10.1°C 93% 2.5 mph WNW4.0 kmh WNW 5.4 mph8.7 kmh 29.67 in1004.7 mb 0.00 in0.0 mm 0.00 in0.0 mm 0.01 in0.3 mm
02:00 AM 52.5°F11.4°C 50.3°F10.2°C 92% 1.9 mph WNW3.1 kmh WNW 3.1 mph5.0 kmh 29.67 in1004.7 mb 0.00 in0.0 mm 0.00 in0.0 mm 0.01 in0.3 mm
01:45 AM 53.1°F11.7°C 50.8°F10.4°C 92% 2.3 mph SW3.7 kmh SW 6.0 mph9.7 kmh 29.67 in1004.7 mb 0.00 in0.0 mm 0.00 in0.0 mm 0.01 in0.3 mm
01:30 AM 53.8°F12.1°C 50.9°F10.5°C 90% 2.3 mph NE3.7 kmh NE 3.8 mph6.1 kmh 29.67 in1004.7 mb 0.00 in0.0 mm 0.00 in0.0 mm 0.01 in0.3 mm
01:15 AM 54.5°F12.5°C 51.6°F10.9°C 90% 2.3 mph W3.7 kmh W 6.0 mph9.7 kmh 29.67 in1004.7 mb 0.00 in0.0 mm 0.00 in0.0 mm 0.01 in0.3 mm
01:00 AM 54.9°F12.7°C 52.3°F11.3°C 91% 2.6 mph S4.2 kmh S 6.0 mph9.7 kmh 29.67 in1004.7 mb 0.00 in0.0 mm 0.00 in0.0 mm 0.01 in0.3 mm
12:45 AM 55.4°F13.0°C 53.4°F11.9°C 93% 2.0 mph SW3.2 kmh SW 3.1 mph5.0 kmh 29.67 in1004.7 mb 0.00 in0.0 mm 0.00 in0.0 mm 0.01 in0.3 mm
12:30 AM 55.9°F13.3°C 54.2°F12.3°C 94% 2.7 mph NNE4.3 kmh NNE 4.5 mph7.2 kmh 29.66 in1004.4 mb 0.00 in0.0 mm 0.00 in0.0 mm 0.01 in0.3 mm
12:15 AM 56.7°F13.7°C 55.3°F12.9°C 95% 2.3 mph N3.7 kmh N 3.8 mph6.1 kmh 29.66 in1004.4 mb 0.00 in0.0 mm 0.00 in0.0 mm 0.01 in0.3 mm
12:00 AM 57.7°F14.3°C 56.0°F13.3°C 94% 2.3 mph S3.7 kmh S 4.5 mph7.2 kmh 29.65 in1004.1 mb 0.01 in0.3 mm 0.00 in0.0 mm 0.01 in0.3 mm